createdAt,value
2022-10-09T00:01:26.141Z,8.18
2022-10-09T00:03:56.763Z,8.13
2022-10-09T00:06:28.238Z,8.18
2022-10-09T00:08:56.491Z,8.13
2022-10-09T00:11:26.404Z,8.00
2022-10-09T00:13:55.923Z,8.03
2022-10-09T00:16:24.945Z,8.01
2022-10-09T00:18:53.649Z,7.92
2022-10-09T00:21:24.795Z,7.84
2022-10-09T00:23:55.891Z,7.88
2022-10-09T00:26:24.557Z,7.86
2022-10-09T00:28:53.160Z,7.85
2022-10-09T00:31:21.732Z,7.88
2022-10-09T00:33:50.333Z,7.98
2022-10-09T00:36:21.140Z,7.82
2022-10-09T00:38:49.759Z,7.74
2022-10-09T00:41:25.386Z,7.73
2022-10-09T00:43:55.112Z,7.70
2022-10-09T00:46:31.241Z,7.68
2022-10-09T00:49:03.766Z,7.62
2022-10-09T00:51:33.505Z,7.55
2022-10-09T00:54:03.843Z,7.44
2022-10-09T00:56:33.615Z,7.58
2022-10-09T00:59:02.352Z,7.52
2022-10-09T01:01:30.500Z,7.59
2022-10-09T01:03:58.804Z,7.56
2022-10-09T01:06:41.061Z,7.61
2022-10-09T01:09:15.854Z,7.57
2022-10-09T01:11:57.013Z,7.57
2022-10-09T01:14:29.156Z,7.67
2022-10-09T01:17:03.437Z,7.66
2022-10-09T01:19:50.304Z,7.54
2022-10-09T01:22:32.072Z,7.61
2022-10-09T01:25:06.207Z,7.53
2022-10-09T01:27:38.371Z,7.44
2022-10-09T01:30:09.818Z,7.42
2022-10-09T01:32:40.973Z,7.42
2022-10-09T01:35:12.134Z,7.40
2022-10-09T01:37:43.578Z,7.42
2022-10-09T01:40:14.265Z,7.43
2022-10-09T01:42:46.934Z,7.45
2022-10-09T01:45:16.390Z,7.47
2022-10-09T01:47:44.943Z,7.39
2022-10-09T01:50:20.921Z,7.41
2022-10-09T01:52:55.666Z,7.43
2022-10-09T01:55:35.555Z,7.39
2022-10-09T01:58:30.136Z,7.33
2022-10-09T02:01:15.487Z,7.31
2022-10-09T02:03:50.119Z,7.25
2022-10-09T02:06:19.994Z,7.40
2022-10-09T02:08:54.822Z,7.34
2022-10-09T02:11:27.079Z,7.20
2022-10-09T02:13:57.070Z,7.09
2022-10-09T02:16:37.686Z,7.13
2022-10-09T02:19:15.271Z,7.17
2022-10-09T02:22:02.106Z,7.14
2022-10-09T02:24:33.193Z,7.16
2022-10-09T02:27:20.308Z,7.10
2022-10-09T02:30:08.982Z,7.07
2022-10-09T02:32:37.536Z,6.95
2022-10-09T02:35:15.232Z,6.88
2022-10-09T02:37:55.347Z,6.89
2022-10-09T02:40:32.155Z,6.75
2022-10-09T02:43:20.079Z,6.74
2022-10-09T02:45:57.152Z,6.85
2022-10-09T02:48:25.384Z,6.89
2022-10-09T02:50:53.524Z,7.01
2022-10-09T02:53:35.685Z,7.01
2022-10-09T02:56:06.600Z,7.04
2022-10-09T02:58:36.146Z,6.91
2022-10-09T03:01:06.583Z,6.96
2022-10-09T03:03:47.666Z,7.05
2022-10-09T03:06:20.611Z,7.01
2022-10-09T03:08:58.673Z,7.02
2022-10-09T03:11:32.296Z,7.00
2022-10-09T03:14:15.645Z,7.10
2022-10-09T03:16:54.483Z,7.19
2022-10-09T03:19:28.047Z,7.08
2022-10-09T03:21:56.126Z,7.06
2022-10-09T03:24:24.273Z,6.93
2022-10-09T03:26:52.458Z,6.75
2022-10-09T03:29:21.144Z,6.72
2022-10-09T03:31:52.731Z,6.78
2022-10-09T03:34:21.448Z,6.76
2022-10-09T03:36:50.294Z,6.77
2022-10-09T03:39:18.494Z,6.87
2022-10-09T03:41:46.594Z,6.81
2022-10-09T03:44:14.722Z,6.87
2022-10-09T03:46:42.910Z,6.83
2022-10-09T03:49:12.571Z,6.84
2022-10-09T03:51:40.721Z,6.74
2022-10-09T03:54:11.582Z,6.53
2022-10-09T03:56:44.173Z,6.65
2022-10-09T03:59:12.835Z,6.65
2022-10-09T04:01:41.121Z,6.75
2022-10-09T04:04:13.977Z,6.77
2022-10-09T04:06:45.048Z,6.65
2022-10-09T04:09:13.347Z,6.59
2022-10-09T04:11:48.255Z,6.67
2022-10-09T04:14:20.004Z,6.77
2022-10-09T04:16:48.467Z,6.70
2022-10-09T04:19:20.643Z,6.64
2022-10-09T04:22:13.641Z,6.44
2022-10-09T04:24:49.781Z,6.49
2022-10-09T04:27:28.276Z,6.50
2022-10-09T04:30:04.392Z,6.43
2022-10-09T04:32:35.065Z,6.43
2022-10-09T04:35:15.207Z,6.54
2022-10-09T04:37:43.635Z,6.58
2022-10-09T04:40:12.424Z,6.64
2022-10-09T04:42:40.651Z,6.63
2022-10-09T04:45:09.858Z,6.67
2022-10-09T04:47:38.090Z,6.54
2022-10-09T04:50:11.093Z,6.52
2022-10-09T04:52:39.212Z,6.64
2022-10-09T04:55:08.317Z,6.65
2022-10-09T04:57:36.570Z,6.60
2022-10-09T05:00:05.259Z,6.48
2022-10-09T05:02:33.652Z,6.50
2022-10-09T05:05:04.292Z,6.55
2022-10-09T05:07:33.846Z,6.57
2022-10-09T05:10:01.978Z,6.50
2022-10-09T05:12:30.202Z,6.62
2022-10-09T05:14:58.387Z,6.62
2022-10-09T05:17:26.671Z,6.52
2022-10-09T05:19:57.682Z,6.60
2022-10-09T05:22:26.009Z,6.50
2022-10-09T05:24:55.561Z,6.49
2022-10-09T05:27:23.838Z,6.57
2022-10-09T05:29:53.692Z,6.61
2022-10-09T05:32:24.296Z,6.62
2022-10-09T05:34:53.709Z,6.52
2022-10-09T05:37:21.994Z,6.48
2022-10-09T05:39:59.935Z,6.47
2022-10-09T05:42:38.441Z,6.67
2022-10-09T05:45:08.562Z,6.59
2022-10-09T05:47:36.849Z,6.58
2022-10-09T05:50:05.587Z,6.42
2022-10-09T05:52:33.753Z,6.44
2022-10-09T05:55:01.967Z,6.40
2022-10-09T05:57:30.398Z,6.45
2022-10-09T06:00:00.011Z,6.46
2022-10-09T06:02:28.304Z,6.48
2022-10-09T06:04:56.738Z,6.50
2022-10-09T06:07:24.987Z,6.50
2022-10-09T06:09:53.142Z,6.46
2022-10-09T06:12:42.293Z,6.54
2022-10-09T06:15:25.343Z,6.53
2022-10-09T06:17:56.310Z,6.45
2022-10-09T06:20:27.603Z,6.49
2022-10-09T06:22:57.839Z,6.53
2022-10-09T06:25:40.557Z,6.61
2022-10-09T06:28:35.271Z,6.60
2022-10-09T06:31:07.477Z,6.57
2022-10-09T06:33:40.176Z,6.62
2022-10-09T06:36:10.873Z,6.69
2022-10-09T06:38:40.972Z,6.60
2022-10-09T06:41:11.120Z,6.65
2022-10-09T06:43:40.817Z,6.73
2022-10-09T06:46:15.229Z,6.81
2022-10-09T06:48:43.580Z,6.80
2022-10-09T06:51:15.516Z,6.86
2022-10-09T06:53:45.824Z,6.89
2022-10-09T06:56:16.135Z,7.16
2022-10-09T06:58:45.024Z,7.55
2022-10-09T07:01:16.883Z,8.04
2022-10-09T07:03:54.895Z,8.11
2022-10-09T07:06:34.708Z,8.14
2022-10-09T07:09:07.607Z,8.11
2022-10-09T07:11:50.978Z,8.11
2022-10-09T07:14:26.893Z,8.02
2022-10-09T07:17:48.074Z,7.96
2022-10-09T07:52:23.932Z,8.83
2022-10-09T07:55:47.403Z,8.96
2022-10-09T07:58:15.604Z,9.00
2022-10-09T08:00:44.478Z,9.18
2022-10-09T08:03:12.605Z,9.26
2022-10-09T08:05:40.795Z,9.28
2022-10-09T08:08:10.341Z,9.31
2022-10-09T08:11:13.530Z,9.32
2022-10-09T08:13:53.080Z,9.52
2022-10-09T08:17:09.782Z,9.57
2022-10-09T08:24:41.551Z,9.75
2022-10-09T08:27:11.040Z,9.82
2022-10-09T08:29:40.327Z,9.96
2022-10-09T08:32:08.609Z,9.99
2022-10-09T08:34:36.634Z,10.09
2022-10-09T08:37:04.590Z,10.16
2022-10-09T08:39:32.845Z,10.29
2022-10-09T08:42:03.431Z,10.38
2022-10-09T08:44:38.999Z,10.47
2022-10-09T08:47:10.469Z,10.62
2022-10-09T08:49:45.144Z,10.73
2022-10-09T08:52:22.026Z,10.89
2022-10-09T08:54:50.178Z,11.00
2022-10-09T08:57:18.878Z,11.06
2022-10-09T08:59:48.435Z,11.13
2022-10-09T09:02:53.082Z,11.21
2022-10-09T09:05:38.493Z,11.44
2022-10-09T09:08:23.453Z,11.46
2022-10-09T09:10:58.889Z,11.59
2022-10-09T09:13:41.885Z,11.75
2022-10-09T09:16:19.270Z,11.82
2022-10-09T09:19:10.901Z,11.99
2022-10-09T09:21:49.005Z,12.06
2022-10-09T09:24:20.205Z,12.18
2022-10-09T09:26:52.852Z,12.35
2022-10-09T09:29:24.360Z,12.33
2022-10-09T09:31:58.182Z,12.40
2022-10-09T09:34:34.835Z,12.42
2022-10-09T09:37:03.477Z,12.46
2022-10-09T09:42:23.093Z,12.58
2022-10-09T09:44:58.869Z,12.83
2022-10-09T09:47:34.691Z,13.05
2022-10-09T09:56:53.316Z,13.23
2022-10-09T09:59:33.819Z,14.12
2022-10-09T10:02:13.865Z,13.95
2022-10-09T10:04:54.861Z,13.87
2022-10-09T10:07:30.689Z,13.98
2022-10-09T10:10:08.093Z,13.83
2022-10-09T10:12:41.829Z,13.87
2022-10-09T10:15:20.045Z,13.82
2022-10-09T10:17:49.982Z,13.99
2022-10-09T10:20:19.986Z,13.98
2022-10-09T10:22:53.152Z,14.08
2022-10-09T10:25:24.649Z,14.07
2022-10-09T10:27:57.275Z,14.22
2022-10-09T10:30:25.473Z,14.46
2022-10-09T10:33:00.078Z,14.22
2022-10-09T10:35:33.810Z,14.22
2022-10-09T10:38:06.452Z,14.37
2022-10-09T10:40:37.929Z,14.40
2022-10-09T10:43:16.676Z,14.12
2022-10-09T10:45:59.061Z,14.57
2022-10-09T10:48:39.390Z,14.42
2022-10-09T10:51:24.525Z,14.54
2022-10-09T10:54:03.981Z,14.82
2022-10-09T10:56:41.373Z,14.67
2022-10-09T10:59:30.352Z,14.55
2022-10-09T11:02:21.083Z,14.66
2022-10-09T11:04:57.500Z,15.10
2022-10-09T11:07:35.875Z,14.94
2022-10-09T11:10:17.003Z,14.73
2022-10-09T11:12:59.359Z,15.11
2022-10-09T11:15:37.946Z,14.98
2022-10-09T11:18:22.947Z,14.85
2022-10-09T11:21:04.068Z,15.13
2022-10-09T11:23:46.214Z,15.38
2022-10-09T11:26:24.914Z,15.35
2022-10-09T11:28:59.514Z,15.14
2022-10-09T11:31:34.221Z,15.37
2022-10-09T11:34:10.727Z,15.55
2022-10-09T11:36:42.047Z,15.43
2022-10-09T11:39:18.205Z,15.46
2022-10-09T11:41:48.644Z,15.28
2022-10-09T11:44:38.938Z,15.21
2022-10-09T11:47:15.921Z,15.35
2022-10-09T11:49:58.777Z,15.58
2022-10-09T11:52:36.901Z,15.77
2022-10-09T11:55:21.994Z,15.79
2022-10-09T11:57:50.918Z,15.90
2022-10-09T12:00:33.954Z,15.77
2022-10-09T12:03:04.387Z,15.79
2022-10-09T12:05:43.885Z,15.82
2022-10-09T12:08:18.414Z,16.14
2022-10-09T12:10:54.225Z,16.25
2022-10-09T12:13:43.056Z,16.52
2022-10-09T12:16:30.056Z,16.72
2022-10-09T12:19:00.153Z,16.95
2022-10-09T12:21:32.792Z,17.03
2022-10-09T12:24:01.640Z,16.77
2022-10-09T12:26:32.344Z,16.92
2022-10-09T12:29:03.241Z,17.27
2022-10-09T12:31:35.137Z,17.26
2022-10-09T12:34:15.054Z,17.16
2022-10-09T12:36:43.172Z,17.28
2022-10-09T12:39:21.292Z,17.44
2022-10-09T12:41:55.685Z,17.57
2022-10-09T12:44:47.832Z,17.30
2022-10-09T12:47:50.077Z,17.27
2022-10-09T12:50:26.043Z,17.26
2022-10-09T12:53:26.998Z,17.28
2022-10-09T12:55:59.269Z,17.48
2022-10-09T12:58:31.075Z,17.27
2022-10-09T13:01:02.413Z,17.20
2022-10-09T13:03:36.550Z,17.25
2022-10-09T13:06:07.151Z,17.27
2022-10-09T13:08:39.143Z,17.14
2022-10-09T13:11:12.539Z,17.03
2022-10-09T13:13:42.187Z,17.08
2022-10-09T13:16:11.300Z,17.18
2022-10-09T13:18:39.536Z,17.00
2022-10-09T13:21:24.426Z,17.10
2022-10-09T13:23:52.603Z,17.19
2022-10-09T13:26:26.772Z,17.06
2022-10-09T13:28:58.378Z,16.79
2022-10-09T13:31:26.796Z,16.85
2022-10-09T13:33:54.737Z,16.81
2022-10-09T13:36:22.670Z,17.10
2022-10-09T13:38:50.805Z,17.08
2022-10-09T13:41:24.272Z,17.07
2022-10-09T13:43:54.291Z,17.00
2022-10-09T13:46:23.650Z,17.08
2022-10-09T13:48:51.609Z,17.20
2022-10-09T13:51:19.704Z,16.87
2022-10-09T13:53:47.645Z,16.92
2022-10-09T13:56:15.601Z,17.21
2022-10-09T13:58:43.631Z,17.06
2022-10-09T14:01:11.686Z,17.00
2022-10-09T14:03:41.556Z,16.96
2022-10-09T14:06:09.682Z,16.96
2022-10-09T14:08:38.534Z,17.01
2022-10-09T14:11:06.848Z,17.09
2022-10-09T14:13:35.152Z,17.00
2022-10-09T14:16:05.620Z,16.87
2022-10-09T14:18:33.591Z,16.63
2022-10-09T14:21:14.623Z,16.48
2022-10-09T14:23:43.321Z,16.92
2022-10-09T14:26:11.323Z,16.82
2022-10-09T14:28:39.475Z,16.86
2022-10-09T14:31:08.344Z,16.64
2022-10-09T14:33:36.488Z,16.66
2022-10-09T14:36:11.353Z,16.63
2022-10-09T14:38:39.760Z,16.84
2022-10-09T14:41:09.102Z,16.68
2022-10-09T14:43:37.564Z,16.61
2022-10-09T14:46:07.316Z,16.60
2022-10-09T14:48:35.628Z,16.64
2022-10-09T14:51:05.259Z,16.79
2022-10-09T14:53:35.181Z,17.15
2022-10-09T14:56:03.869Z,16.95
2022-10-09T14:58:33.826Z,16.82
2022-10-09T15:01:02.821Z,16.73
2022-10-09T15:03:31.744Z,16.79
2022-10-09T15:06:00.768Z,16.64
2022-10-09T15:08:31.048Z,16.93
2022-10-09T15:11:00.647Z,16.73
2022-10-09T15:13:28.874Z,16.96
2022-10-09T15:16:00.175Z,16.89
2022-10-09T15:18:28.596Z,16.81
2022-10-09T15:20:57.718Z,16.85
2022-10-09T15:23:25.728Z,16.89
2022-10-09T15:25:55.492Z,16.74
2022-10-09T15:28:25.895Z,16.55
2022-10-09T15:30:56.589Z,16.76
2022-10-09T15:33:25.048Z,16.59
2022-10-09T15:37:00.099Z,16.37
2022-10-09T15:39:28.466Z,16.61
2022-10-09T15:43:40.502Z,16.42
2022-10-09T15:45:52.893Z,16.32
2022-10-09T15:48:50.181Z,16.35
2022-10-09T15:51:52.615Z,16.28
2022-10-09T16:33:20.237Z,15.12
2022-10-09T16:35:48.615Z,14.98
2022-10-09T16:38:17.770Z,15.02
2022-10-09T16:41:02.996Z,14.88
2022-10-09T16:43:36.656Z,14.78
2022-10-09T16:46:18.505Z,14.84
2022-10-09T16:48:48.867Z,14.71
2022-10-09T16:51:28.981Z,14.64
2022-10-09T16:53:59.403Z,14.57
2022-10-09T16:56:33.004Z,14.44
2022-10-09T16:59:14.425Z,14.43
2022-10-09T17:01:43.747Z,14.31
2022-10-09T17:04:14.782Z,14.32
2022-10-09T17:10:08.252Z,14.13
2022-10-09T17:12:44.952Z,14.07
2022-10-09T17:36:26.377Z,13.47
2022-10-09T17:38:54.637Z,13.39
2022-10-09T17:41:25.058Z,13.38
2022-10-09T17:43:54.524Z,13.30
2022-10-09T17:46:23.638Z,13.16
2022-10-09T17:48:53.489Z,13.15
2022-10-09T17:51:25.421Z,13.08
2022-10-09T17:53:54.581Z,12.98
2022-10-09T17:56:22.584Z,12.85
2022-10-09T17:58:50.728Z,12.93
2022-10-09T18:01:19.363Z,12.90
2022-10-09T18:03:47.392Z,12.76
2022-10-09T18:06:17.650Z,12.73
2022-10-09T18:08:47.745Z,12.68
2022-10-09T18:11:17.757Z,12.57
2022-10-09T18:13:46.935Z,12.57
2022-10-09T18:16:17.469Z,12.50
2022-10-09T18:18:46.014Z,12.45
2022-10-09T18:21:17.637Z,12.44
2022-10-09T18:23:48.185Z,12.38
2022-10-09T18:26:18.289Z,12.37
2022-10-09T18:28:48.550Z,12.34
2022-10-09T18:31:20.466Z,12.26
2022-10-09T18:33:48.569Z,12.20
2022-10-09T18:36:19.709Z,12.18
2022-10-09T18:38:56.689Z,12.18
2022-10-09T18:41:25.065Z,12.13
2022-10-09T18:43:54.027Z,12.18
2022-10-09T18:46:26.111Z,12.05
2022-10-09T18:53:22.806Z,11.88
2022-10-09T18:55:52.533Z,11.84
2022-10-09T18:58:22.145Z,11.76
2022-10-09T19:00:50.539Z,11.71
2022-10-09T19:03:18.518Z,11.76
2022-10-09T19:05:46.496Z,11.67
2022-10-09T19:08:14.560Z,11.60
2022-10-09T19:10:42.764Z,11.55
2022-10-09T19:13:18.361Z,11.44
2022-10-09T19:15:52.655Z,11.41
2022-10-09T19:18:21.321Z,11.39
2022-10-09T19:20:50.008Z,11.32
2022-10-09T19:23:18.113Z,11.25
2022-10-09T19:25:50.502Z,11.22
2022-10-09T19:28:20.977Z,11.19
2022-10-09T19:30:49.495Z,11.15
2022-10-09T19:33:18.444Z,11.14
2022-10-09T19:35:51.534Z,11.20
2022-10-09T19:38:20.002Z,11.14
2022-10-09T19:40:48.737Z,11.18
2022-10-09T19:43:18.261Z,11.19
2022-10-09T19:45:49.928Z,11.18
2022-10-09T19:48:20.407Z,11.17
2022-10-09T19:50:48.463Z,11.09
2022-10-09T19:53:16.522Z,11.11
2022-10-09T19:55:44.874Z,11.10
2022-10-09T19:58:14.823Z,11.11
2022-10-09T20:01:09.230Z,11.13
2022-10-09T20:03:38.013Z,11.13
2022-10-09T20:06:43.025Z,11.14
2022-10-09T20:09:20.894Z,11.12
2022-10-09T20:11:49.505Z,11.12
2022-10-09T20:14:17.609Z,11.14
2022-10-09T20:16:47.202Z,11.10
2022-10-09T20:19:15.333Z,11.06
2022-10-09T20:21:43.326Z,11.04
2022-10-09T20:24:11.361Z,11.02
2022-10-09T20:26:42.993Z,10.99
2022-10-09T20:29:11.708Z,10.98
2022-10-09T20:31:40.192Z,10.97
2022-10-09T20:34:09.670Z,10.97
2022-10-09T20:36:39.182Z,10.90
2022-10-09T20:39:09.459Z,10.87
2022-10-09T20:41:38.125Z,10.80
2022-10-09T20:44:07.203Z,10.79
2022-10-09T20:46:36.942Z,10.72
2022-10-09T20:49:07.531Z,10.67
2022-10-09T20:51:38.231Z,10.62
2022-10-09T20:54:07.477Z,10.51
2022-10-09T20:56:36.686Z,10.48
2022-10-09T20:59:04.858Z,10.49
2022-10-09T21:01:33.003Z,10.34
2022-10-09T21:04:00.926Z,10.26
2022-10-09T21:06:30.175Z,10.16
2022-10-09T21:08:59.938Z,10.15
2022-10-09T21:11:28.190Z,10.15
2022-10-09T21:13:56.288Z,10.11
2022-10-09T21:16:25.408Z,10.00
2022-10-09T21:18:55.265Z,10.02
2022-10-09T21:21:23.681Z,9.98
2022-10-09T21:23:53.453Z,9.88
2022-10-09T21:26:24.330Z,9.86
2022-10-09T21:28:58.226Z,9.78
2022-10-09T21:31:28.876Z,9.86
2022-10-09T21:33:58.079Z,9.74
2022-10-09T21:36:33.746Z,9.74
2022-10-09T21:39:01.833Z,9.63
2022-10-09T21:41:31.200Z,9.53
2022-10-09T21:43:59.287Z,9.59
2022-10-09T21:46:27.630Z,9.58
2022-10-09T21:48:56.304Z,9.46
2022-10-09T21:51:24.456Z,9.44
2022-10-09T21:53:54.299Z,9.34
2022-10-09T21:56:22.390Z,9.38
2022-10-09T21:58:52.074Z,9.36
2022-10-09T22:01:20.236Z,9.34
2022-10-09T22:03:48.665Z,9.32
2022-10-09T22:06:19.122Z,9.32
2022-10-09T22:08:47.992Z,9.23
2022-10-09T22:11:16.764Z,9.15
2022-10-09T22:13:45.289Z,8.97
2022-10-09T22:16:16.483Z,8.96
2022-10-09T22:18:44.879Z,8.94
2022-10-09T22:21:15.023Z,9.00
2022-10-09T22:23:43.874Z,9.03
2022-10-09T22:26:13.555Z,8.91
2022-10-09T22:28:41.995Z,8.93
2022-10-09T22:31:13.565Z,8.90
2022-10-09T22:33:43.593Z,8.96
2022-10-09T22:36:14.482Z,8.87
2022-10-09T22:38:43.860Z,8.90
2022-10-09T22:41:13.528Z,8.93
2022-10-09T22:43:42.690Z,8.80
2022-10-09T22:46:12.681Z,8.81
2022-10-09T22:48:42.853Z,8.70
2022-10-09T22:51:13.434Z,8.67
2022-10-09T22:53:43.002Z,8.70
2022-10-09T22:56:15.044Z,8.67
2022-10-09T22:58:43.171Z,8.61
2022-10-09T23:01:14.467Z,8.69
2022-10-09T23:03:43.947Z,8.67
2022-10-09T23:06:14.257Z,8.70
2022-10-09T23:08:44.659Z,8.73
2022-10-09T23:11:14.147Z,8.74
2022-10-09T23:13:42.649Z,8.69
2022-10-09T23:16:12.592Z,8.81
2022-10-09T23:18:42.154Z,8.81
2022-10-09T23:21:15.561Z,8.73
2022-10-09T23:23:45.392Z,8.72
2022-10-09T23:26:15.674Z,8.66
2022-10-09T23:28:44.984Z,8.74
2022-10-09T23:31:15.338Z,8.77
2022-10-09T23:33:45.247Z,8.82
2022-10-09T23:36:17.461Z,8.78
2022-10-09T23:38:46.524Z,8.73
2022-10-09T23:41:17.005Z,8.70
2022-10-09T23:43:45.728Z,8.75
2022-10-09T23:46:16.208Z,8.74
2022-10-09T23:48:44.741Z,8.71
2022-10-09T23:51:14.839Z,8.72
2022-10-09T23:53:43.482Z,8.74
2022-10-09T23:56:19.899Z,8.81
2022-10-09T23:58:48.426Z,8.77
